createdAt,value
2022-08-04T00:00:22.187Z,84.70
2022-08-04T00:02:33.470Z,84.80
2022-08-04T00:05:01.295Z,85.00
2022-08-04T00:07:44.349Z,84.40
2022-08-04T00:10:01.572Z,83.70
2022-08-04T00:12:08.480Z,84.10
2022-08-04T00:14:16.476Z,85.00
2022-08-04T00:16:20.829Z,85.00
2022-08-04T00:18:56.418Z,86.00
2022-08-04T00:21:05.325Z,86.10
2022-08-04T00:23:09.288Z,86.00
2022-08-04T00:25:12.359Z,85.70
2022-08-04T00:27:15.797Z,85.80
2022-08-04T00:29:18.585Z,85.90
2022-08-04T00:31:54.332Z,85.90
2022-08-04T00:33:46.825Z,85.50
2022-08-04T00:35:50.105Z,84.80
2022-08-04T00:37:53.555Z,84.50
2022-08-04T00:39:57.456Z,84.50
2022-08-04T00:42:37.435Z,84.30
2022-08-04T00:46:15.640Z,84.10
2022-08-04T00:48:37.787Z,83.90
2022-08-04T00:51:08.525Z,83.70
2022-08-04T00:53:30.061Z,84.30
2022-08-04T00:56:15.541Z,85.40
2022-08-04T00:59:08.063Z,85.80
2022-08-04T01:01:52.985Z,86.20
2022-08-04T01:04:19.480Z,85.60
2022-08-04T01:07:10.539Z,86.10
2022-08-04T01:09:54.082Z,86.10
2022-08-04T01:12:23.190Z,86.70
2022-08-04T01:14:43.595Z,86.50
2022-08-04T01:16:53.656Z,86.50
2022-08-04T01:19:00.641Z,86.30
2022-08-04T01:21:30.205Z,86.40
2022-08-04T01:24:16.321Z,86.40
2022-08-04T01:26:44.144Z,86.70
2022-08-04T01:29:09.548Z,86.50
2022-08-04T01:31:24.065Z,86.20
2022-08-04T01:33:30.370Z,86.30
2022-08-04T01:35:55.690Z,87.10
2022-08-04T01:38:20.076Z,86.70
2022-08-04T01:40:27.881Z,86.80
2022-08-04T01:42:34.131Z,86.80
2022-08-04T01:44:39.818Z,86.90
2022-08-04T01:46:42.644Z,86.90
2022-08-04T01:48:48.003Z,87.00
2022-08-04T01:50:53.937Z,87.10
2022-08-04T01:52:56.809Z,87.80
2022-08-04T01:55:01.647Z,87.90
2022-08-04T01:57:37.496Z,88.40
2022-08-04T01:59:31.064Z,88.90
2022-08-04T02:01:36.761Z,88.60
2022-08-04T02:04:20.674Z,88.40
2022-08-04T02:06:28.326Z,88.10
2022-08-04T02:09:20.696Z,88.10
2022-08-04T02:11:23.690Z,88.90
2022-08-04T02:13:38.289Z,90.00
2022-08-04T02:16:09.107Z,90.10
2022-08-04T02:18:27.277Z,90.30
2022-08-04T02:20:41.218Z,90.50
2022-08-04T02:23:06.838Z,90.80
2022-08-04T02:25:11.964Z,90.80
2022-08-04T02:27:15.440Z,90.80
2022-08-04T02:29:39.445Z,90.60
2022-08-04T02:32:07.849Z,90.60
2022-08-04T02:34:25.973Z,90.50
2022-08-04T02:36:39.100Z,90.80
2022-08-04T02:39:01.340Z,91.10
2022-08-04T02:41:06.099Z,90.90
2022-08-04T02:43:10.738Z,90.80
2022-08-04T02:45:14.593Z,90.90
2022-08-04T02:47:24.410Z,91.00
2022-08-04T02:49:47.898Z,91.50
2022-08-04T02:51:57.521Z,91.20
2022-08-04T02:54:04.035Z,91.00
2022-08-04T02:56:09.289Z,91.10
2022-08-04T02:58:15.419Z,91.00
2022-08-04T03:00:19.973Z,90.90
2022-08-04T03:02:40.943Z,90.90
2022-08-04T03:04:51.486Z,90.90
2022-08-04T03:07:07.995Z,90.80
2022-08-04T03:09:24.811Z,90.70
2022-08-04T03:11:45.649Z,90.60
2022-08-04T03:14:33.479Z,90.80
2022-08-04T03:17:07.287Z,90.90
2022-08-04T03:19:46.476Z,91.40
2022-08-04T03:22:22.833Z,91.60
2022-08-04T03:25:15.337Z,91.70
2022-08-04T03:28:19.087Z,91.70
2022-08-04T03:31:08.234Z,91.80
2022-08-04T03:33:57.064Z,92.00
2022-08-04T03:36:35.356Z,91.90
2022-08-04T03:39:23.228Z,92.00
2022-08-04T03:41:54.927Z,92.10
2022-08-04T03:44:27.522Z,92.20
2022-08-04T03:47:29.247Z,92.30
2022-08-04T03:50:07.564Z,92.60
2022-08-04T03:53:09.030Z,92.60
2022-08-04T03:55:58.408Z,92.70
2022-08-04T03:58:40.629Z,92.20
2022-08-04T04:02:01.336Z,92.20
2022-08-04T04:04:50.745Z,92.30
2022-08-04T04:07:36.063Z,91.90
2022-08-04T04:10:12.394Z,92.40
2022-08-04T04:12:30.745Z,92.60
2022-08-04T04:15:06.629Z,92.60
2022-08-04T04:17:17.816Z,92.50
2022-08-04T04:19:58.466Z,92.40
2022-08-04T04:22:23.304Z,92.90
2022-08-04T04:24:38.779Z,93.00
2022-08-04T04:27:10.179Z,93.00
2022-08-04T04:29:57.985Z,92.70
2022-08-04T04:32:36.244Z,92.50
2022-08-04T04:35:11.521Z,92.40
2022-08-04T04:37:48.935Z,92.20
2022-08-04T04:39:57.755Z,92.20
2022-08-04T04:42:21.347Z,92.10
2022-08-04T04:44:46.883Z,92.10
2022-08-04T04:47:03.744Z,92.00
2022-08-04T04:49:35.240Z,91.90
2022-08-04T04:52:20.622Z,91.90
2022-08-04T04:54:44.186Z,91.90
2022-08-04T04:57:23.147Z,91.90
2022-08-04T05:00:12.334Z,91.90
2022-08-04T05:02:29.478Z,92.10
2022-08-04T05:04:53.328Z,92.20
2022-08-04T05:07:50.487Z,92.10
2022-08-04T05:10:10.613Z,92.10
2022-08-04T05:14:33.264Z,92.00
2022-08-04T05:15:12.611Z,91.90
2022-08-04T05:17:30.791Z,92.00
2022-08-04T05:19:54.343Z,92.10
2022-08-04T05:22:00.603Z,92.20
2022-08-04T05:24:09.372Z,92.10
2022-08-04T05:26:18.356Z,91.90
2022-08-04T05:28:28.282Z,91.70
2022-08-04T05:30:37.071Z,91.50
2022-08-04T05:33:00.199Z,91.30
2022-08-04T05:35:09.659Z,90.90
2022-08-04T05:37:17.651Z,90.60
2022-08-04T05:39:34.168Z,90.50
2022-08-04T05:41:45.555Z,90.30
2022-08-04T05:43:50.715Z,90.00
2022-08-04T05:45:54.187Z,89.30
2022-08-04T05:47:57.067Z,88.50
2022-08-04T05:50:03.241Z,87.60
2022-08-04T05:52:09.713Z,86.80
2022-08-04T05:54:13.759Z,85.90
2022-08-04T05:56:18.072Z,85.10
2022-08-04T05:58:21.639Z,84.00
2022-08-04T06:00:40.724Z,82.90
2022-08-04T06:02:47.283Z,81.90
2022-08-04T06:04:51.590Z,80.40
2022-08-04T06:06:55.063Z,79.90
2022-08-04T06:08:58.176Z,79.60
2022-08-04T06:11:06.349Z,78.90
2022-08-04T06:13:49.202Z,78.40
2022-08-04T06:15:40.490Z,78.60
2022-08-04T06:18:35.063Z,77.90
2022-08-04T06:20:34.491Z,77.40
2022-08-04T06:22:42.332Z,76.70
2022-08-04T06:24:48.215Z,76.20
2022-08-04T06:26:52.271Z,75.90
2022-08-04T06:28:55.616Z,75.30
2022-08-04T06:32:26.968Z,74.80
2022-08-04T06:33:54.119Z,74.30
2022-08-04T06:35:59.505Z,74.20
2022-08-04T06:38:03.400Z,73.50
2022-08-04T06:40:31.122Z,73.10
2022-08-04T06:42:34.178Z,73.30
2022-08-04T06:44:41.395Z,72.70
2022-08-04T06:46:44.224Z,72.20
2022-08-04T06:48:47.742Z,72.00
2022-08-04T06:51:24.793Z,71.30
2022-08-04T06:53:15.157Z,70.80
2022-08-04T06:55:19.424Z,70.20
2022-08-04T06:57:31.245Z,69.60
2022-08-04T06:59:36.507Z,69.10
2022-08-04T07:19:09.769Z,65.00
2022-08-04T07:22:18.175Z,64.30
2022-08-04T07:27:51.071Z,63.60
2022-08-04T07:29:54.279Z,61.70
2022-08-04T07:31:58.775Z,62.10
2022-08-04T07:34:11.615Z,62.60
2022-08-04T07:36:24.197Z,62.20
2022-08-04T07:38:33.463Z,62.00
2022-08-04T07:40:41.031Z,61.80
2022-08-04T07:42:44.821Z,60.00
2022-08-04T07:44:48.171Z,59.70
2022-08-04T07:46:51.910Z,59.80
2022-08-04T07:48:55.214Z,60.00
2022-08-04T07:50:58.622Z,59.70
2022-08-04T07:53:54.318Z,59.40
2022-08-04T07:55:27.479Z,59.20
2022-08-04T07:57:40.280Z,59.50
2022-08-04T07:59:48.291Z,59.00
2022-08-04T08:01:54.965Z,57.60
2022-08-04T08:03:59.153Z,57.70
2022-08-04T08:06:31.691Z,57.80
2022-08-04T08:08:31.482Z,57.90
2022-08-04T08:10:34.069Z,57.60
2022-08-04T08:12:51.397Z,56.70
2022-08-04T08:15:22.145Z,55.20
2022-08-04T08:17:58.200Z,55.80
2022-08-04T08:20:33.338Z,55.90
2022-08-04T08:22:38.789Z,55.50
2022-08-04T08:24:42.568Z,53.90
2022-08-04T08:26:45.508Z,51.50
2022-08-04T08:28:48.552Z,52.20
2022-08-04T08:30:52.666Z,51.40
2022-08-04T08:32:55.580Z,50.00
2022-08-04T08:34:59.545Z,49.60
2022-08-04T08:37:35.098Z,49.60
2022-08-04T08:40:10.893Z,50.10
2022-08-04T08:42:53.920Z,49.50
2022-08-04T08:45:37.810Z,49.10
2022-08-04T08:48:38.058Z,48.20
2022-08-04T08:51:28.715Z,47.90
2022-08-04T08:53:40.404Z,47.60
2022-08-04T08:56:39.738Z,47.80
2022-08-04T08:59:07.342Z,47.90
2022-08-04T09:01:51.668Z,48.20
2022-08-04T09:04:04.981Z,48.40
2022-08-04T09:06:27.483Z,49.10
2022-08-04T09:09:14.170Z,49.20
2022-08-04T09:11:22.680Z,49.00
2022-08-04T09:13:35.557Z,48.60
2022-08-04T09:16:00.185Z,47.80
2022-08-04T09:18:29.582Z,48.20
2022-08-04T09:20:49.403Z,48.70
2022-08-04T09:23:26.868Z,48.70
2022-08-04T09:25:58.525Z,48.50
2022-08-04T09:28:37.228Z,48.70
2022-08-04T09:30:58.138Z,49.30
2022-08-04T09:33:45.366Z,49.20
2022-08-04T09:36:26.001Z,48.60
2022-08-04T09:38:52.429Z,48.60
2022-08-04T09:41:48.623Z,48.30
2022-08-04T09:44:50.090Z,47.90
2022-08-04T09:46:47.261Z,47.50
2022-08-04T09:49:21.815Z,46.40
2022-08-04T09:51:58.169Z,46.60
2022-08-04T09:54:29.337Z,45.80
2022-08-04T09:56:55.005Z,46.80
2022-08-04T09:59:24.405Z,47.10
2022-08-04T10:01:35.223Z,47.80
2022-08-04T10:03:45.530Z,46.60
2022-08-04T10:06:08.787Z,46.70
2022-08-04T10:08:44.622Z,47.80
2022-08-04T10:11:08.496Z,47.60
2022-08-04T10:14:01.052Z,47.60
2022-08-04T10:16:39.391Z,47.30
2022-08-04T10:18:53.209Z,47.60
2022-08-04T10:21:08.896Z,46.40
2022-08-04T10:23:56.186Z,45.40
2022-08-04T10:26:38.745Z,46.30
2022-08-04T10:28:52.462Z,47.10
2022-08-04T10:31:09.998Z,46.60
2022-08-04T10:33:26.644Z,46.80
2022-08-04T10:35:37.984Z,46.30
2022-08-04T10:38:06.575Z,46.20
2022-08-04T10:40:36.460Z,46.20
2022-08-04T10:42:50.507Z,45.80
2022-08-04T10:45:20.658Z,43.80
2022-08-04T10:47:44.324Z,44.70
2022-08-04T10:50:00.703Z,44.70
2022-08-04T10:52:31.430Z,44.80
2022-08-04T10:54:50.656Z,45.00
2022-08-04T10:57:03.867Z,44.90
2022-08-04T11:00:04.547Z,44.30
2022-08-04T11:02:40.227Z,43.60
2022-08-04T11:04:49.071Z,41.90
2022-08-04T11:06:53.185Z,42.70
2022-08-04T11:08:57.220Z,43.30
2022-08-04T11:11:07.972Z,43.40
2022-08-04T11:13:30.090Z,43.60
2022-08-04T11:15:41.044Z,43.80
2022-08-04T11:17:57.814Z,43.30
2022-08-04T11:20:34.469Z,43.00
2022-08-04T11:22:55.707Z,42.90
2022-08-04T11:25:25.048Z,44.00
2022-08-04T11:27:43.549Z,43.40
2022-08-04T11:30:09.448Z,43.10
2022-08-04T11:33:05.294Z,44.10
2022-08-04T11:35:14.184Z,44.20
2022-08-04T11:37:24.844Z,42.20
2022-08-04T11:39:43.921Z,42.20
2022-08-04T11:42:10.808Z,42.30
2022-08-04T11:44:24.375Z,41.40
2022-08-04T11:46:39.954Z,40.30
2022-08-04T11:49:29.974Z,40.00
2022-08-04T11:51:35.169Z,39.20
2022-08-04T11:53:40.137Z,38.00
2022-08-04T11:56:07.526Z,38.20
2022-08-04T11:58:07.564Z,38.60
2022-08-04T12:00:15.213Z,37.90
2022-08-04T12:02:42.334Z,38.60
2022-08-04T12:05:09.424Z,38.60
2022-08-04T12:08:12.580Z,38.40
2022-08-04T12:11:02.251Z,37.00
2022-08-04T12:13:28.724Z,35.60
2022-08-04T12:15:48.112Z,37.20
2022-08-04T12:17:59.857Z,37.70
2022-08-04T12:20:31.639Z,37.50
2022-08-04T12:22:40.668Z,37.20
2022-08-04T12:25:01.757Z,36.80
2022-08-04T12:27:31.006Z,36.70
2022-08-04T12:29:36.486Z,37.70
2022-08-04T12:31:49.761Z,37.70
2022-08-04T12:34:06.637Z,37.80
2022-08-04T12:36:40.815Z,38.40
2022-08-04T12:39:01.941Z,37.50
2022-08-04T12:41:07.442Z,36.60
2022-08-04T12:43:18.348Z,35.90
2022-08-04T12:45:22.636Z,35.50
2022-08-04T12:47:36.342Z,35.60
2022-08-04T12:50:00.958Z,35.30
2022-08-04T12:52:17.964Z,35.70
2022-08-04T12:54:32.229Z,35.30
2022-08-04T12:56:37.974Z,35.50
2022-08-04T12:58:49.515Z,35.70
2022-08-04T13:01:03.499Z,36.00
2022-08-04T13:04:06.493Z,35.90
2022-08-04T13:06:35.629Z,35.00
2022-08-04T13:08:41.844Z,34.80
2022-08-04T13:10:57.837Z,34.50
2022-08-04T13:13:06.322Z,34.70
2022-08-04T13:15:18.930Z,35.10
2022-08-04T13:17:23.037Z,36.40
2022-08-04T13:19:56.347Z,36.40
2022-08-04T13:22:05.591Z,37.10
2022-08-04T13:24:22.759Z,37.50
2022-08-04T13:26:42.585Z,37.20
2022-08-04T13:29:01.327Z,35.40
2022-08-04T13:31:24.122Z,35.20
2022-08-04T13:34:05.408Z,35.90
2022-08-04T13:36:12.394Z,37.50
2022-08-04T13:38:19.541Z,38.00
2022-08-04T13:40:30.802Z,37.90
2022-08-04T13:42:36.918Z,37.90
2022-08-04T13:44:44.431Z,38.00
2022-08-04T13:46:53.447Z,38.40
2022-08-04T13:51:25.533Z,37.50
2022-08-04T13:53:58.781Z,36.60
2022-08-04T13:56:08.349Z,36.70
2022-08-04T13:58:23.764Z,36.00
2022-08-04T14:00:46.337Z,36.10
2022-08-04T14:03:23.834Z,36.40
2022-08-04T14:05:36.908Z,36.90
2022-08-04T14:08:17.366Z,38.30
2022-08-04T14:10:22.748Z,38.80
2022-08-04T14:12:46.374Z,38.00
2022-08-04T14:14:53.071Z,38.30
2022-08-04T14:17:17.141Z,37.50
2022-08-04T14:19:29.223Z,37.20
2022-08-04T14:21:39.885Z,37.20
2022-08-04T14:23:57.820Z,36.90
2022-08-04T14:26:00.509Z,36.40
2022-08-04T14:28:06.307Z,36.60
2022-08-04T14:30:40.977Z,36.60
2022-08-04T14:34:02.945Z,37.10
2022-08-04T14:35:58.838Z,37.90
2022-08-04T14:38:11.728Z,38.10
2022-08-04T14:40:31.453Z,38.10
2022-08-04T14:42:59.859Z,37.90
2022-08-04T14:45:03.880Z,37.60
2022-08-04T14:47:13.085Z,37.90
2022-08-04T14:49:17.276Z,37.20
2022-08-04T14:51:26.282Z,36.40
2022-08-04T14:53:55.268Z,36.30
2022-08-04T14:56:00.180Z,36.90
2022-08-04T14:58:33.866Z,37.00
2022-08-04T15:00:37.446Z,37.80
2022-08-04T15:02:42.793Z,38.50
2022-08-04T15:04:46.778Z,38.40
2022-08-04T15:07:16.885Z,38.30
2022-08-04T15:09:24.221Z,38.00
2022-08-04T15:11:47.321Z,37.80
2022-08-04T15:13:49.990Z,37.20
2022-08-04T15:16:54.259Z,37.40
2022-08-04T15:19:00.800Z,37.50
2022-08-04T15:21:08.314Z,37.50
2022-08-04T15:23:11.170Z,37.80
2022-08-04T15:25:15.656Z,38.60
2022-08-04T15:27:26.686Z,39.00
2022-08-04T15:30:00.615Z,38.40
2022-08-04T15:32:09.211Z,37.60
2022-08-04T15:34:17.749Z,37.40
2022-08-04T15:36:56.126Z,37.80
2022-08-04T15:40:16.767Z,38.80
2022-08-04T15:43:09.163Z,39.50
2022-08-04T15:46:41.203Z,40.50
2022-08-04T15:48:04.998Z,40.40
2022-08-04T15:50:13.763Z,39.10
2022-08-04T15:52:59.650Z,38.60
2022-08-04T15:55:45.981Z,38.10
2022-08-04T15:58:05.442Z,37.70
2022-08-04T16:00:14.835Z,36.50
2022-08-04T16:02:36.404Z,36.70
2022-08-04T16:04:39.329Z,36.70
2022-08-04T16:06:44.626Z,37.80
2022-08-04T16:09:00.708Z,37.50
2022-08-04T16:11:05.733Z,37.00
2022-08-04T16:13:24.028Z,36.60
2022-08-04T16:16:03.899Z,36.40
2022-08-04T16:18:25.340Z,36.30
2022-08-04T16:20:36.897Z,36.30
2022-08-04T16:23:53.533Z,36.20
2022-08-04T16:25:56.582Z,36.40
2022-08-04T16:28:02.830Z,36.40
2022-08-04T16:30:15.644Z,37.20
2022-08-04T16:32:42.035Z,38.10
2022-08-04T16:35:03.732Z,39.20
2022-08-04T16:37:09.277Z,42.10
2022-08-04T16:39:19.317Z,49.90
2022-08-04T16:41:42.490Z,46.50
2022-08-04T16:43:45.048Z,47.40
2022-08-04T16:46:04.052Z,49.90
2022-08-04T16:48:11.415Z,49.50
2022-08-04T16:50:24.460Z,49.00
2022-08-04T16:52:28.334Z,47.70
2022-08-04T16:54:35.126Z,47.00
2022-08-04T16:56:37.924Z,47.70
2022-08-04T16:58:53.060Z,48.00
2022-08-04T17:00:57.578Z,47.90
2022-08-04T17:03:09.576Z,47.50
2022-08-04T17:05:39.824Z,47.20
2022-08-04T17:08:13.138Z,47.60
2022-08-04T17:10:17.301Z,48.10
2022-08-04T17:12:20.139Z,48.60
2022-08-04T17:14:31.265Z,48.30
2022-08-04T17:16:40.246Z,47.70
2022-08-04T17:18:51.192Z,47.10
2022-08-04T17:21:01.275Z,47.20
2022-08-04T17:24:14.616Z,47.30
2022-08-04T17:25:55.503Z,47.20
2022-08-04T17:28:09.616Z,47.10
2022-08-04T17:30:30.136Z,47.00
2022-08-04T17:32:35.597Z,46.50
2022-08-04T17:34:50.395Z,46.20
2022-08-04T17:36:52.981Z,46.00
2022-08-04T17:39:04.386Z,46.30
2022-08-04T17:41:19.332Z,46.70
2022-08-04T17:44:04.018Z,47.10
2022-08-04T17:46:45.433Z,47.80
2022-08-04T17:49:07.082Z,48.00
2022-08-04T17:51:17.394Z,48.10
2022-08-04T17:53:52.914Z,48.20
2022-08-04T17:56:06.771Z,48.00
2022-08-04T17:58:23.161Z,48.70
2022-08-04T18:00:28.846Z,47.70
2022-08-04T18:02:37.103Z,47.50
2022-08-04T18:05:05.115Z,47.60
2022-08-04T18:08:38.622Z,47.40
2022-08-04T18:10:32.923Z,47.60
2022-08-04T18:12:35.678Z,48.80
2022-08-04T18:14:53.699Z,48.40
2022-08-04T18:16:56.482Z,48.20
2022-08-04T18:19:10.560Z,48.10
2022-08-04T18:21:15.299Z,47.90
2022-08-04T18:23:31.975Z,47.60
2022-08-04T18:25:51.166Z,47.60
2022-08-04T18:27:57.379Z,47.80
2022-08-04T18:30:33.373Z,48.10
2022-08-04T18:32:32.997Z,48.20
2022-08-04T18:34:40.927Z,48.00
2022-08-04T18:36:59.224Z,48.20
2022-08-04T18:39:15.878Z,49.40
2022-08-04T18:41:22.689Z,49.40
2022-08-04T18:43:28.183Z,49.40
2022-08-04T18:45:34.520Z,49.40
2022-08-04T18:47:59.169Z,49.50
2022-08-04T18:52:59.775Z,50.10
2022-08-04T18:55:05.220Z,50.00
2022-08-04T18:57:58.680Z,49.70
2022-08-04T18:59:33.492Z,49.90
2022-08-04T19:02:13.064Z,50.00
2022-08-04T19:04:03.428Z,50.10
2022-08-04T19:06:52.592Z,49.90
2022-08-04T19:08:55.353Z,50.00
2022-08-04T19:11:00.838Z,50.10
2022-08-04T19:13:25.436Z,50.50
2022-08-04T19:15:34.516Z,51.40
2022-08-04T19:17:57.110Z,51.60
2022-08-04T19:20:00.881Z,51.80
2022-08-04T19:22:07.283Z,52.00
2022-08-04T19:24:31.751Z,52.00
2022-08-04T19:26:36.813Z,52.80
2022-08-04T19:28:40.399Z,52.40
2022-08-04T19:30:43.528Z,52.40
2022-08-04T19:32:48.390Z,52.30
2022-08-04T19:34:52.136Z,52.70
2022-08-04T19:36:54.895Z,52.80
2022-08-04T19:38:58.493Z,52.90
2022-08-04T19:41:14.248Z,52.70
2022-08-04T19:43:36.378Z,52.80
2022-08-04T19:45:46.611Z,52.90
2022-08-04T19:48:16.138Z,52.90
2022-08-04T19:50:13.739Z,52.90
2022-08-04T19:52:34.255Z,52.90
2022-08-04T19:54:40.887Z,53.20
2022-08-04T19:56:46.499Z,53.40
2022-08-04T19:58:52.495Z,53.30
2022-08-04T20:00:58.178Z,54.20
2022-08-04T20:03:01.195Z,53.60
2022-08-04T20:05:04.384Z,54.10
2022-08-04T20:07:23.865Z,54.30
2022-08-04T20:09:27.226Z,54.00
2022-08-04T20:11:29.923Z,54.20
2022-08-04T20:13:37.742Z,54.40
2022-08-04T20:15:55.517Z,54.70
2022-08-04T20:18:36.433Z,54.90
2022-08-04T20:20:33.690Z,55.00
2022-08-04T20:22:52.498Z,54.60
2022-08-04T20:25:01.085Z,54.70
2022-08-04T20:27:23.569Z,54.60
2022-08-04T20:29:40.114Z,54.80
2022-08-04T20:31:43.621Z,54.90
2022-08-04T20:33:49.050Z,54.90
2022-08-04T20:36:05.148Z,55.10
2022-08-04T20:38:33.209Z,55.10
2022-08-04T20:40:36.882Z,54.90
2022-08-04T20:42:47.123Z,55.00
2022-08-04T20:44:53.588Z,54.50
2022-08-04T20:46:57.251Z,54.50
2022-08-04T20:49:00.022Z,54.60
2022-08-04T20:51:03.640Z,54.70
2022-08-04T20:53:16.367Z,54.80
2022-08-04T20:55:21.269Z,54.80
2022-08-04T20:57:49.273Z,54.60
2022-08-04T20:59:59.863Z,54.70
2022-08-04T21:02:05.686Z,54.70
2022-08-04T21:04:28.851Z,55.00
2022-08-04T21:06:34.331Z,54.70
2022-08-04T21:08:39.935Z,54.60
2022-08-04T21:10:47.526Z,54.60
2022-08-04T21:12:50.587Z,54.70
2022-08-04T21:14:54.588Z,55.00
2022-08-04T21:17:00.105Z,55.10
2022-08-04T21:19:04.201Z,55.60
2022-08-04T21:21:14.683Z,55.60
2022-08-04T21:23:19.303Z,55.40
2022-08-04T21:25:22.612Z,55.60
2022-08-04T21:27:25.502Z,55.80
2022-08-04T21:29:35.258Z,56.00
2022-08-04T21:31:50.375Z,57.00
2022-08-04T21:33:53.944Z,56.50
2022-08-04T21:35:56.542Z,56.40
2022-08-04T21:38:01.153Z,56.10
2022-08-04T21:40:13.723Z,55.90
2022-08-04T21:42:42.297Z,56.60
2022-08-04T21:44:41.068Z,57.90
2022-08-04T21:46:44.938Z,58.50
2022-08-04T21:48:50.792Z,58.40
2022-08-04T21:50:55.097Z,58.30
2022-08-04T21:52:59.055Z,58.20
2022-08-04T21:55:02.866Z,58.20
2022-08-04T21:57:06.323Z,58.60
2022-08-04T21:59:14.090Z,58.60
2022-08-04T22:01:21.781Z,58.60
2022-08-04T22:03:51.715Z,59.00
2022-08-04T22:05:57.034Z,58.30
2022-08-04T22:07:59.744Z,58.20
2022-08-04T22:10:06.121Z,58.20
2022-08-04T22:12:11.840Z,58.20
2022-08-04T22:14:14.935Z,58.40
2022-08-04T22:16:17.759Z,58.70
2022-08-04T22:18:20.536Z,59.10
2022-08-04T22:20:28.397Z,59.00
2022-08-04T22:22:35.492Z,59.00
2022-08-04T22:24:40.499Z,59.40
2022-08-04T22:26:43.285Z,59.40
2022-08-04T22:28:46.376Z,59.50
2022-08-04T22:30:52.265Z,59.80
2022-08-04T22:32:55.193Z,60.00
2022-08-04T22:34:57.749Z,59.80
2022-08-04T22:37:35.597Z,59.50
2022-08-04T22:39:56.510Z,59.90
2022-08-04T22:42:03.341Z,59.70
2022-08-04T22:44:08.261Z,60.20
2022-08-04T22:46:26.824Z,59.90
2022-08-04T22:48:32.148Z,59.80
2022-08-04T22:50:34.918Z,59.90
2022-08-04T22:52:51.637Z,59.90
2022-08-04T22:55:06.292Z,59.60
2022-08-04T22:57:21.197Z,59.40
2022-08-04T22:59:44.489Z,60.10
2022-08-04T23:01:57.905Z,61.10
2022-08-04T23:04:04.501Z,61.60
2022-08-04T23:06:11.488Z,62.10
2022-08-04T23:08:15.336Z,62.60
2022-08-04T23:10:25.704Z,62.40
2022-08-04T23:12:30.767Z,62.40
2022-08-04T23:14:36.775Z,63.00
2022-08-04T23:16:40.887Z,62.80
2022-08-04T23:18:48.375Z,63.20
2022-08-04T23:20:52.875Z,63.30
2022-08-04T23:22:55.788Z,63.60
2022-08-04T23:24:58.576Z,64.00
2022-08-04T23:27:02.435Z,64.70
2022-08-04T23:29:05.295Z,65.10
2022-08-04T23:31:10.310Z,64.40
2022-08-04T23:33:13.101Z,64.50
2022-08-04T23:35:18.610Z,64.10
2022-08-04T23:37:25.839Z,63.70
2022-08-04T23:40:03.889Z,63.40
2022-08-04T23:42:01.754Z,63.30
2022-08-04T23:44:05.697Z,63.50
2022-08-04T23:46:13.283Z,63.80
2022-08-04T23:48:19.189Z,63.90
2022-08-04T23:50:35.804Z,63.80
2022-08-04T23:52:43.442Z,64.10
2022-08-04T23:54:46.066Z,64.40
2022-08-04T23:56:52.867Z,64.30
2022-08-04T23:58:57.302Z,63.70
